sensor_id;sensor_type;location;lat;lon;timestamp;temperature;humidity
19847;DHT22;10084;50.518;8.588;2022-10-17T00:00:23;14.60;81.10
19847;DHT22;10084;50.518;8.588;2022-10-17T00:02:48;14.60;81.20
19847;DHT22;10084;50.518;8.588;2022-10-17T00:05:14;14.70;81.20
19847;DHT22;10084;50.518;8.588;2022-10-17T00:07:40;14.70;81.30
19847;DHT22;10084;50.518;8.588;2022-10-17T00:10:06;14.70;81.30
19847;DHT22;10084;50.518;8.588;2022-10-17T00:12:33;14.70;81.30
19847;DHT22;10084;50.518;8.588;2022-10-17T00:14:58;14.70;81.40
19847;DHT22;10084;50.518;8.588;2022-10-17T00:17:24;14.70;81.40
19847;DHT22;10084;50.518;8.588;2022-10-17T00:19:50;14.70;81.50
19847;DHT22;10084;50.518;8.588;2022-10-17T00:22:16;14.60;81.50
19847;DHT22;10084;50.518;8.588;2022-10-17T00:24:42;14.60;81.60
19847;DHT22;10084;50.518;8.588;2022-10-17T00:27:07;14.60;81.70
19847;DHT22;10084;50.518;8.588;2022-10-17T00:29:33;14.60;81.70
19847;DHT22;10084;50.518;8.588;2022-10-17T00:31:59;14.60;81.80
19847;DHT22;10084;50.518;8.588;2022-10-17T00:34:27;14.60;81.80
19847;DHT22;10084;50.518;8.588;2022-10-17T00:36:53;14.50;81.70
19847;DHT22;10084;50.518;8.588;2022-10-17T00:39:18;14.50;81.70
19847;DHT22;10084;50.518;8.588;2022-10-17T00:41:45;14.40;81.70
19847;DHT22;10084;50.518;8.588;2022-10-17T00:47:03;14.30;81.90
19847;DHT22;10084;50.518;8.588;2022-10-17T00:49:32;14.30;82.10
19847;DHT22;10084;50.518;8.588;2022-10-17T00:52:04;14.30;82.20
19847;DHT22;10084;50.518;8.588;2022-10-17T00:54:34;14.20;82.30
19847;DHT22;10084;50.518;8.588;2022-10-17T00:57:02;14.20;82.30
19847;DHT22;10084;50.518;8.588;2022-10-17T00:59:33;14.10;81.90
19847;DHT22;10084;50.518;8.588;2022-10-17T01:02:03;14.10;82.50
19847;DHT22;10084;50.518;8.588;2022-10-17T01:04:30;14.10;82.50
19847;DHT22;10084;50.518;8.588;2022-10-17T01:06:56;14.00;82.50
19847;DHT22;10084;50.518;8.588;2022-10-17T01:09:23;14.00;82.60
19847;DHT22;10084;50.518;8.588;2022-10-17T01:11:58;14.00;82.80
19847;DHT22;10084;50.518;8.588;2022-10-17T01:17:51;13.90;82.90
19847;DHT22;10084;50.518;8.588;2022-10-17T01:20:46;13.90;83.00
19847;DHT22;10084;50.518;8.588;2022-10-17T01:26:25;13.90;83.10
19847;DHT22;10084;50.518;8.588;2022-10-17T01:31:45;13.80;83.30
19847;DHT22;10084;50.518;8.588;2022-10-17T01:39:28;13.80;83.40
19847;DHT22;10084;50.518;8.588;2022-10-17T01:44:44;13.80;83.50
19847;DHT22;10084;50.518;8.588;2022-10-17T01:47:16;13.80;83.60
19847;DHT22;10084;50.518;8.588;2022-10-17T01:49:44;13.70;83.70
19847;DHT22;10084;50.518;8.588;2022-10-17T01:52:18;13.70;83.90
19847;DHT22;10084;50.518;8.588;2022-10-17T01:55:22;13.70;83.60
19847;DHT22;10084;50.518;8.588;2022-10-17T01:57:49;13.60;84.20
19847;DHT22;10084;50.518;8.588;2022-10-17T02:00:19;13.60;83.80
19847;DHT22;10084;50.518;8.588;2022-10-17T02:02:57;13.60;84.10
19847;DHT22;10084;50.518;8.588;2022-10-17T02:05:30;13.50;88.10
19847;DHT22;10084;50.518;8.588;2022-10-17T02:07:56;13.60;84.70
19847;DHT22;10084;50.518;8.588;2022-10-17T02:10:43;13.70;84.60
19847;DHT22;10084;50.518;8.588;2022-10-17T02:21:44;13.40;84.70
19847;DHT22;10084;50.518;8.588;2022-10-17T02:24:24;13.40;85.90
19847;DHT22;10084;50.518;8.588;2022-10-17T02:27:02;13.40;84.20
19847;DHT22;10084;50.518;8.588;2022-10-17T02:29:36;13.40;84.30
19847;DHT22;10084;50.518;8.588;2022-10-17T02:32:06;13.40;84.30
19847;DHT22;10084;50.518;8.588;2022-10-17T02:34:42;13.40;84.30
19847;DHT22;10084;50.518;8.588;2022-10-17T02:37:14;13.40;84.50
19847;DHT22;10084;50.518;8.588;2022-10-17T02:39:43;13.40;84.60
19847;DHT22;10084;50.518;8.588;2022-10-17T02:42:15;13.30;84.60
19847;DHT22;10084;50.518;8.588;2022-10-17T02:44:43;13.30;84.70
19847;DHT22;10084;50.518;8.588;2022-10-17T02:47:22;13.30;84.90
19847;DHT22;10084;50.518;8.588;2022-10-17T02:49:51;13.30;85.00
19847;DHT22;10084;50.518;8.588;2022-10-17T02:52:21;13.30;85.10
19847;DHT22;10084;50.518;8.588;2022-10-17T02:55:17;13.30;85.20
19847;DHT22;10084;50.518;8.588;2022-10-17T02:57:51;13.30;85.40
19847;DHT22;10084;50.518;8.588;2022-10-17T03:00:19;13.40;85.50
19847;DHT22;10084;50.518;8.588;2022-10-17T03:02:48;13.40;85.50
19847;DHT22;10084;50.518;8.588;2022-10-17T03:05:22;13.40;85.60
19847;DHT22;10084;50.518;8.588;2022-10-17T03:07:49;13.40;85.50
19847;DHT22;10084;50.518;8.588;2022-10-17T03:10:15;13.40;85.30
19847;DHT22;10084;50.518;8.588;2022-10-17T03:12:41;13.40;85.30
19847;DHT22;10084;50.518;8.588;2022-10-17T03:15:08;13.40;85.40
19847;DHT22;10084;50.518;8.588;2022-10-17T03:17:35;13.30;85.40
19847;DHT22;10084;50.518;8.588;2022-10-17T03:20:01;13.30;85.40
19847;DHT22;10084;50.518;8.588;2022-10-17T03:22:28;13.30;85.40
19847;DHT22;10084;50.518;8.588;2022-10-17T03:24:54;13.30;85.60
19847;DHT22;10084;50.518;8.588;2022-10-17T03:27:19;13.20;85.50
19847;DHT22;10084;50.518;8.588;2022-10-17T03:29:45;13.20;85.60
19847;DHT22;10084;50.518;8.588;2022-10-17T03:32:13;13.20;85.70
19847;DHT22;10084;50.518;8.588;2022-10-17T03:34:39;13.20;85.70
19847;DHT22;10084;50.518;8.588;2022-10-17T03:37:08;13.10;85.90
19847;DHT22;10084;50.518;8.588;2022-10-17T03:39:35;13.10;85.90
19847;DHT22;10084;50.518;8.588;2022-10-17T03:42:02;13.10;86.00
19847;DHT22;10084;50.518;8.588;2022-10-17T03:44:28;13.00;86.10
19847;DHT22;10084;50.518;8.588;2022-10-17T03:46:53;13.00;86.20
19847;DHT22;10084;50.518;8.588;2022-10-17T03:49:19;13.00;86.30
19847;DHT22;10084;50.518;8.588;2022-10-17T03:51:45;13.00;86.30
19847;DHT22;10084;50.518;8.588;2022-10-17T03:54:13;13.00;86.30
19847;DHT22;10084;50.518;8.588;2022-10-17T03:56:39;13.00;86.40
19847;DHT22;10084;50.518;8.588;2022-10-17T03:59:13;13.00;86.40
19847;DHT22;10084;50.518;8.588;2022-10-17T04:01:41;12.90;86.40
19847;DHT22;10084;50.518;8.588;2022-10-17T04:04:08;12.90;86.50
19847;DHT22;10084;50.518;8.588;2022-10-17T04:06:36;12.90;86.60
19847;DHT22;10084;50.518;8.588;2022-10-17T04:09:03;12.90;86.80
19847;DHT22;10084;50.518;8.588;2022-10-17T04:11:41;12.90;86.90
19847;DHT22;10084;50.518;8.588;2022-10-17T04:14:08;12.90;87.10
19847;DHT22;10084;50.518;8.588;2022-10-17T04:16:37;13.00;87.50
19847;DHT22;10084;50.518;8.588;2022-10-17T04:19:11;13.00;87.70
19847;DHT22;10084;50.518;8.588;2022-10-17T04:21:40;13.00;87.50
19847;DHT22;10084;50.518;8.588;2022-10-17T04:24:09;13.10;88.10
19847;DHT22;10084;50.518;8.588;2022-10-17T04:26:45;13.10;88.20
19847;DHT22;10084;50.518;8.588;2022-10-17T04:29:13;13.10;88.20
19847;DHT22;10084;50.518;8.588;2022-10-17T04:31:41;13.20;88.40
19847;DHT22;10084;50.518;8.588;2022-10-17T04:34:20;13.20;88.70
19847;DHT22;10084;50.518;8.588;2022-10-17T04:36:46;13.30;89.20
19847;DHT22;10084;50.518;8.588;2022-10-17T04:39:12;13.30;90.00
19847;DHT22;10084;50.518;8.588;2022-10-17T04:41:39;13.40;89.70
19847;DHT22;10084;50.518;8.588;2022-10-17T04:44:05;13.50;89.60
19847;DHT22;10084;50.518;8.588;2022-10-17T04:46:34;13.60;89.70
19847;DHT22;10084;50.518;8.588;2022-10-17T04:49:01;13.60;89.80
19847;DHT22;10084;50.518;8.588;2022-10-17T04:51:27;13.70;89.80
19847;DHT22;10084;50.518;8.588;2022-10-17T04:54:10;13.70;89.80
19847;DHT22;10084;50.518;8.588;2022-10-17T04:56:38;13.80;90.20
19847;DHT22;10084;50.518;8.588;2022-10-17T04:59:04;13.80;89.80
19847;DHT22;10084;50.518;8.588;2022-10-17T05:01:30;13.80;89.70
19847;DHT22;10084;50.518;8.588;2022-10-17T05:03:56;13.80;89.70
19847;DHT22;10084;50.518;8.588;2022-10-17T05:06:24;13.80;89.70
19847;DHT22;10084;50.518;8.588;2022-10-17T05:09:17;13.80;89.50
19847;DHT22;10084;50.518;8.588;2022-10-17T05:11:43;13.80;89.40
19847;DHT22;10084;50.518;8.588;2022-10-17T05:14:09;13.80;89.70
19847;DHT22;10084;50.518;8.588;2022-10-17T05:16:35;13.70;89.90
19847;DHT22;10084;50.518;8.588;2022-10-17T05:19:01;13.80;90.10
19847;DHT22;10084;50.518;8.588;2022-10-17T05:21:31;13.80;90.10
19847;DHT22;10084;50.518;8.588;2022-10-17T05:23:57;13.70;90.20
19847;DHT22;10084;50.518;8.588;2022-10-17T05:26:24;13.70;90.40
19847;DHT22;10084;50.518;8.588;2022-10-17T05:28:50;13.80;90.50
19847;DHT22;10084;50.518;8.588;2022-10-17T05:31:18;13.80;90.40
19847;DHT22;10084;50.518;8.588;2022-10-17T05:33:44;13.80;90.40
19847;DHT22;10084;50.518;8.588;2022-10-17T05:36:10;13.80;90.50
19847;DHT22;10084;50.518;8.588;2022-10-17T05:38:36;13.80;90.60
19847;DHT22;10084;50.518;8.588;2022-10-17T05:41:04;13.80;90.70
19847;DHT22;10084;50.518;8.588;2022-10-17T05:43:31;13.80;90.70
19847;DHT22;10084;50.518;8.588;2022-10-17T05:45:58;13.80;90.70
19847;DHT22;10084;50.518;8.588;2022-10-17T05:48:23;13.80;90.70
19847;DHT22;10084;50.518;8.588;2022-10-17T05:50:57;13.90;90.80
19847;DHT22;10084;50.518;8.588;2022-10-17T05:53:23;13.80;90.90
19847;DHT22;10084;50.518;8.588;2022-10-17T05:55:55;13.90;91.00
19847;DHT22;10084;50.518;8.588;2022-10-17T05:58:21;13.90;91.10
19847;DHT22;10084;50.518;8.588;2022-10-17T06:00:48;13.90;91.10
19847;DHT22;10084;50.518;8.588;2022-10-17T06:03:15;14.00;91.30
19847;DHT22;10084;50.518;8.588;2022-10-17T06:05:40;14.00;91.20
19847;DHT22;10084;50.518;8.588;2022-10-17T06:08:06;14.00;91.30
19847;DHT22;10084;50.518;8.588;2022-10-17T06:10:34;14.00;91.30
19847;DHT22;10084;50.518;8.588;2022-10-17T06:13:00;14.00;91.30
19847;DHT22;10084;50.518;8.588;2022-10-17T06:15:26;14.00;91.30
19847;DHT22;10084;50.518;8.588;2022-10-17T06:17:58;14.10;91.40
19847;DHT22;10084;50.518;8.588;2022-10-17T06:20:24;14.10;91.40
19847;DHT22;10084;50.518;8.588;2022-10-17T06:22:50;14.10;91.50
19847;DHT22;10084;50.518;8.588;2022-10-17T06:25:25;14.20;91.70
19847;DHT22;10084;50.518;8.588;2022-10-17T06:27:51;14.20;91.90
19847;DHT22;10084;50.518;8.588;2022-10-17T06:30:16;14.30;92.10
19847;DHT22;10084;50.518;8.588;2022-10-17T06:32:44;14.40;92.20
19847;DHT22;10084;50.518;8.588;2022-10-17T06:35:09;14.60;92.30
19847;DHT22;10084;50.518;8.588;2022-10-17T06:37:35;14.70;92.20
19847;DHT22;10084;50.518;8.588;2022-10-17T06:40:03;14.80;92.20
19847;DHT22;10084;50.518;8.588;2022-10-17T06:42:30;14.90;92.10
19847;DHT22;10084;50.518;8.588;2022-10-17T06:45:07;14.90;92.00
19847;DHT22;10084;50.518;8.588;2022-10-17T06:47:36;15.10;92.00
19847;DHT22;10084;50.518;8.588;2022-10-17T06:50:11;15.10;91.90
19847;DHT22;10084;50.518;8.588;2022-10-17T06:52:50;15.20;91.80
19847;DHT22;10084;50.518;8.588;2022-10-17T06:55:36;15.30;91.70
19847;DHT22;10084;50.518;8.588;2022-10-17T06:58:20;15.40;91.60
19847;DHT22;10084;50.518;8.588;2022-10-17T07:01:00;15.40;91.50
19847;DHT22;10084;50.518;8.588;2022-10-17T07:03:26;15.50;91.40
19847;DHT22;10084;50.518;8.588;2022-10-17T07:05:53;15.60;91.50
19847;DHT22;10084;50.518;8.588;2022-10-17T07:08:19;15.70;91.60
19847;DHT22;10084;50.518;8.588;2022-10-17T07:10:45;15.80;91.70
19847;DHT22;10084;50.518;8.588;2022-10-17T07:15:39;16.00;91.70
19847;DHT22;10084;50.518;8.588;2022-10-17T07:18:05;16.20;92.10
19847;DHT22;10084;50.518;8.588;2022-10-17T07:20:31;16.40;92.30
19847;DHT22;10084;50.518;8.588;2022-10-17T07:22:56;16.60;92.30
19847;DHT22;10084;50.518;8.588;2022-10-17T07:25:23;16.80;92.00
19847;DHT22;10084;50.518;8.588;2022-10-17T07:27:53;17.00;91.70
19847;DHT22;10084;50.518;8.588;2022-10-17T07:30:20;17.20;91.30
19847;DHT22;10084;50.518;8.588;2022-10-17T07:32:53;17.30;91.20
19847;DHT22;10084;50.518;8.588;2022-10-17T07:35:19;17.40;91.40
19847;DHT22;10084;50.518;8.588;2022-10-17T07:37:46;17.60;91.80
19847;DHT22;10084;50.518;8.588;2022-10-17T07:40:13;17.70;92.00
19847;DHT22;10084;50.518;8.588;2022-10-17T07:42:39;17.80;91.90
19847;DHT22;10084;50.518;8.588;2022-10-17T07:45:05;17.90;91.70
19847;DHT22;10084;50.518;8.588;2022-10-17T07:47:32;18.00;91.80
19847;DHT22;10084;50.518;8.588;2022-10-17T07:50:01;18.10;91.90
19847;DHT22;10084;50.518;8.588;2022-10-17T07:52:27;18.10;91.90
19847;DHT22;10084;50.518;8.588;2022-10-17T07:54:52;18.20;92.20
19847;DHT22;10084;50.518;8.588;2022-10-17T07:59:44;18.60;91.80
19847;DHT22;10084;50.518;8.588;2022-10-17T08:02:20;18.70;91.90
19847;DHT22;10084;50.518;8.588;2022-10-17T08:04:47;18.80;91.90
19847;DHT22;10084;50.518;8.588;2022-10-17T08:07:13;19.10;92.50
19847;DHT22;10084;50.518;8.588;2022-10-17T08:09:40;19.40;93.20
19847;DHT22;10084;50.518;8.588;2022-10-17T08:12:06;19.90;94.00
19847;DHT22;10084;50.518;8.588;2022-10-17T08:14:32;20.50;94.70
19847;DHT22;10084;50.518;8.588;2022-10-17T08:16:57;21.10;94.40
19847;DHT22;10084;50.518;8.588;2022-10-17T08:19:23;21.80;94.30
19847;DHT22;10084;50.518;8.588;2022-10-17T08:21:49;22.30;93.80
19847;DHT22;10084;50.518;8.588;2022-10-17T08:24:15;22.80;92.70
19847;DHT22;10084;50.518;8.588;2022-10-17T08:26:40;23.10;91.60
19847;DHT22;10084;50.518;8.588;2022-10-17T08:29:12;23.40;90.40
19847;DHT22;10084;50.518;8.588;2022-10-17T08:31:37;23.40;89.00
19847;DHT22;10084;50.518;8.588;2022-10-17T08:34:03;23.40;88.20
19847;DHT22;10084;50.518;8.588;2022-10-17T08:36:29;23.50;88.10
19847;DHT22;10084;50.518;8.588;2022-10-17T08:38:54;23.70;87.30
19847;DHT22;10084;50.518;8.588;2022-10-17T08:44:13;24.20;85.00
19847;DHT22;10084;50.518;8.588;2022-10-17T08:46:45;24.50;82.90
19847;DHT22;10084;50.518;8.588;2022-10-17T08:49:26;24.60;82.00
19847;DHT22;10084;50.518;8.588;2022-10-17T08:52:01;24.80;81.60
19847;DHT22;10084;50.518;8.588;2022-10-17T08:54:48;25.40;81.50
19847;DHT22;10084;50.518;8.588;2022-10-17T08:57:16;26.20;81.10
19847;DHT22;10084;50.518;8.588;2022-10-17T08:59:43;26.70;78.70
19847;DHT22;10084;50.518;8.588;2022-10-17T09:02:34;27.00;77.10
19847;DHT22;10084;50.518;8.588;2022-10-17T09:05:23;27.20;76.50
19847;DHT22;10084;50.518;8.588;2022-10-17T09:13:52;28.40;73.60
19847;DHT22;10084;50.518;8.588;2022-10-17T09:16:36;28.70;72.40
19847;DHT22;10084;50.518;8.588;2022-10-17T09:19:23;28.90;71.60
19847;DHT22;10084;50.518;8.588;2022-10-17T09:21:57;29.10;71.00
19847;DHT22;10084;50.518;8.588;2022-10-17T09:27:31;29.60;70.00
19847;DHT22;10084;50.518;8.588;2022-10-17T09:30:26;30.20;69.20
19847;DHT22;10084;50.518;8.588;2022-10-17T09:32:53;30.90;68.10
19847;DHT22;10084;50.518;8.588;2022-10-17T09:35:21;31.40;66.90
19847;DHT22;10084;50.518;8.588;2022-10-17T09:37:47;31.80;66.10
19847;DHT22;10084;50.518;8.588;2022-10-17T09:40:27;32.10;64.80
19847;DHT22;10084;50.518;8.588;2022-10-17T09:42:56;32.30;63.70
19847;DHT22;10084;50.518;8.588;2022-10-17T09:45:23;32.50;62.50
19847;DHT22;10084;50.518;8.588;2022-10-17T09:48:24;32.50;62.00
19847;DHT22;10084;50.518;8.588;2022-10-17T09:50:51;32.40;60.90
19847;DHT22;10084;50.518;8.588;2022-10-17T09:53:19;32.60;61.30
19847;DHT22;10084;50.518;8.588;2022-10-17T09:55:49;32.90;60.20
19847;DHT22;10084;50.518;8.588;2022-10-17T09:58:16;33.00;59.00
19847;DHT22;10084;50.518;8.588;2022-10-17T10:00:44;33.00;57.40
19847;DHT22;10084;50.518;8.588;2022-10-17T10:03:22;33.00;57.90
19847;DHT22;10084;50.518;8.588;2022-10-17T10:06:01;33.10;58.50
19847;DHT22;10084;50.518;8.588;2022-10-17T10:08:56;33.30;57.70
19847;DHT22;10084;50.518;8.588;2022-10-17T10:11:46;33.80;57.50
19847;DHT22;10084;50.518;8.588;2022-10-17T10:14:35;34.30;57.30
19847;DHT22;10084;50.518;8.588;2022-10-17T10:17:03;35.00;56.50
19847;DHT22;10084;50.518;8.588;2022-10-17T10:19:31;35.60;55.30
19847;DHT22;10084;50.518;8.588;2022-10-17T10:22:02;36.10;55.00
19847;DHT22;10084;50.518;8.588;2022-10-17T10:24:28;36.60;54.60
19847;DHT22;10084;50.518;8.588;2022-10-17T10:26:56;37.10;54.10
19847;DHT22;10084;50.518;8.588;2022-10-17T10:29:36;37.30;53.20
19847;DHT22;10084;50.518;8.588;2022-10-17T10:32:11;37.50;53.50
19847;DHT22;10084;50.518;8.588;2022-10-17T10:34:49;37.60;53.50
19847;DHT22;10084;50.518;8.588;2022-10-17T10:37:20;37.70;53.30
19847;DHT22;10084;50.518;8.588;2022-10-17T10:39:49;37.60;52.50
19847;DHT22;10084;50.518;8.588;2022-10-17T10:42:28;37.30;51.90
19847;DHT22;10084;50.518;8.588;2022-10-17T10:45:02;37.00;51.60
19847;DHT22;10084;50.518;8.588;2022-10-17T10:47:30;36.70;51.40
19847;DHT22;10084;50.518;8.588;2022-10-17T10:50:28;36.60;51.20
19847;DHT22;10084;50.518;8.588;2022-10-17T10:53:04;36.50;50.50
19847;DHT22;10084;50.518;8.588;2022-10-17T10:55:37;36.40;49.80
19847;DHT22;10084;50.518;8.588;2022-10-17T11:01:34;36.60;48.00
19847;DHT22;10084;50.518;8.588;2022-10-17T11:06:40;37.00;46.50
19847;DHT22;10084;50.518;8.588;2022-10-17T11:09:17;37.30;45.50
19847;DHT22;10084;50.518;8.588;2022-10-17T11:11:57;37.50;44.90
19847;DHT22;10084;50.518;8.588;2022-10-17T11:14:36;37.90;44.20
19847;DHT22;10084;50.518;8.588;2022-10-17T11:20:11;39.10;42.30
19847;DHT22;10084;50.518;8.588;2022-10-17T11:22:47;39.30;41.30
19847;DHT22;10084;50.518;8.588;2022-10-17T11:25:18;39.40;41.20
19847;DHT22;10084;50.518;8.588;2022-10-17T11:27:46;39.50;40.80
19847;DHT22;10084;50.518;8.588;2022-10-17T11:30:14;39.50;40.00
19847;DHT22;10084;50.518;8.588;2022-10-17T11:32:54;39.50;39.80
19847;DHT22;10084;50.518;8.588;2022-10-17T11:35:46;39.50;39.20
19847;DHT22;10084;50.518;8.588;2022-10-17T11:40:52;39.50;38.80
19847;DHT22;10084;50.518;8.588;2022-10-17T11:43:26;39.70;38.40
19847;DHT22;10084;50.518;8.588;2022-10-17T11:48:51;40.00;37.90
19847;DHT22;10084;50.518;8.588;2022-10-17T11:51:19;40.20;37.60
19847;DHT22;10084;50.518;8.588;2022-10-17T11:54:04;40.40;37.20
19847;DHT22;10084;50.518;8.588;2022-10-17T11:56:59;40.30;37.00
19847;DHT22;10084;50.518;8.588;2022-10-17T12:02:38;40.20;36.80
19847;DHT22;10084;50.518;8.588;2022-10-17T12:05:20;39.60;36.90
19847;DHT22;10084;50.518;8.588;2022-10-17T12:08:04;38.90;37.50
19847;DHT22;10084;50.518;8.588;2022-10-17T12:13:45;37.60;38.50
19847;DHT22;10084;50.518;8.588;2022-10-17T12:21:54;34.60;40.80
19847;DHT22;10084;50.518;8.588;2022-10-17T12:29:47;32.00;43.30
19847;DHT22;10084;50.518;8.588;2022-10-17T12:32:14;31.60;43.90
19847;DHT22;10084;50.518;8.588;2022-10-17T12:34:51;31.30;44.40
19847;DHT22;10084;50.518;8.588;2022-10-17T12:42:59;30.90;45.20
19847;DHT22;10084;50.518;8.588;2022-10-17T12:51:14;30.20;44.80
19847;DHT22;10084;50.518;8.588;2022-10-17T12:58:56;29.70;46.00
19847;DHT22;10084;50.518;8.588;2022-10-17T13:01:28;29.50;46.00
19847;DHT22;10084;50.518;8.588;2022-10-17T13:03:55;29.20;45.50
19847;DHT22;10084;50.518;8.588;2022-10-17T13:06:27;29.20;46.20
19847;DHT22;10084;50.518;8.588;2022-10-17T13:09:04;29.00;46.20
19847;DHT22;10084;50.518;8.588;2022-10-17T13:11:34;28.80;46.80
19847;DHT22;10084;50.518;8.588;2022-10-17T13:14:02;28.70;46.60
19847;DHT22;10084;50.518;8.588;2022-10-17T13:16:56;28.50;46.70
19847;DHT22;10084;50.518;8.588;2022-10-17T13:19:23;28.40;46.90
19847;DHT22;10084;50.518;8.588;2022-10-17T13:22:01;28.30;47.10
19847;DHT22;10084;50.518;8.588;2022-10-17T13:24:33;28.20;47.20
19847;DHT22;10084;50.518;8.588;2022-10-17T13:27:00;28.20;47.40
19847;DHT22;10084;50.518;8.588;2022-10-17T13:29:27;28.10;47.50
19847;DHT22;10084;50.518;8.588;2022-10-17T13:31:57;28.00;47.60
19847;DHT22;10084;50.518;8.588;2022-10-17T13:34:26;28.00;47.70
19847;DHT22;10084;50.518;8.588;2022-10-17T13:36:54;27.90;47.90
19847;DHT22;10084;50.518;8.588;2022-10-17T13:39:25;27.90;48.00
19847;DHT22;10084;50.518;8.588;2022-10-17T13:41:53;27.90;48.10
19847;DHT22;10084;50.518;8.588;2022-10-17T13:44:27;27.80;48.10
19847;DHT22;10084;50.518;8.588;2022-10-17T13:46:56;27.80;48.30
19847;DHT22;10084;50.518;8.588;2022-10-17T13:49:39;27.80;48.30
19847;DHT22;10084;50.518;8.588;2022-10-17T13:52:13;27.80;48.40
19847;DHT22;10084;50.518;8.588;2022-10-17T13:54:44;27.60;48.40
19847;DHT22;10084;50.518;8.588;2022-10-17T13:57:38;27.50;48.60
19847;DHT22;10084;50.518;8.588;2022-10-17T14:00:18;27.30;48.80
19847;DHT22;10084;50.518;8.588;2022-10-17T14:02:45;27.20;49.10
19847;DHT22;10084;50.518;8.588;2022-10-17T14:05:14;27.10;49.20
19847;DHT22;10084;50.518;8.588;2022-10-17T14:07:43;27.00;49.30
19847;DHT22;10084;50.518;8.588;2022-10-17T14:10:23;26.90;49.40
19847;DHT22;10084;50.518;8.588;2022-10-17T14:12:50;26.80;49.60
19847;DHT22;10084;50.518;8.588;2022-10-17T14:15:17;26.70;49.70
19847;DHT22;10084;50.518;8.588;2022-10-17T14:17:43;26.60;49.80
19847;DHT22;10084;50.518;8.588;2022-10-17T14:20:18;26.50;50.00
19847;DHT22;10084;50.518;8.588;2022-10-17T14:22:45;26.30;50.00
19847;DHT22;10084;50.518;8.588;2022-10-17T14:25:37;26.20;50.10
19847;DHT22;10084;50.518;8.588;2022-10-17T14:28:13;26.10;50.40
19847;DHT22;10084;50.518;8.588;2022-10-17T14:30:48;25.90;50.50
19847;DHT22;10084;50.518;8.588;2022-10-17T14:33:18;25.80;50.70
19847;DHT22;10084;50.518;8.588;2022-10-17T14:35:52;25.70;50.90
19847;DHT22;10084;50.518;8.588;2022-10-17T14:38:19;25.50;51.00
19847;DHT22;10084;50.518;8.588;2022-10-17T14:40:50;25.40;51.20
19847;DHT22;10084;50.518;8.588;2022-10-17T14:43:21;25.30;51.40
19847;DHT22;10084;50.518;8.588;2022-10-17T14:45:48;25.10;51.60
19847;DHT22;10084;50.518;8.588;2022-10-17T14:48:19;25.00;51.70
19847;DHT22;10084;50.518;8.588;2022-10-17T14:54:18;24.70;51.60
19847;DHT22;10084;50.518;8.588;2022-10-17T14:56:49;24.60;52.40
19847;DHT22;10084;50.518;8.588;2022-10-17T14:59:16;24.50;52.60
19847;DHT22;10084;50.518;8.588;2022-10-17T15:01:50;24.50;53.60
19847;DHT22;10084;50.518;8.588;2022-10-17T15:04:16;24.40;52.90
19847;DHT22;10084;50.518;8.588;2022-10-17T15:06:43;24.50;53.10
19847;DHT22;10084;50.518;8.588;2022-10-17T15:09:10;24.40;53.20
19847;DHT22;10084;50.518;8.588;2022-10-17T15:11:36;24.40;53.40
19847;DHT22;10084;50.518;8.588;2022-10-17T15:14:02;24.40;53.60
19847;DHT22;10084;50.518;8.588;2022-10-17T15:16:32;24.30;53.70
19847;DHT22;10084;50.518;8.588;2022-10-17T15:18:58;24.20;55.20
19847;DHT22;10084;50.518;8.588;2022-10-17T15:21:27;24.20;54.00
19847;DHT22;10084;50.518;8.588;2022-10-17T15:23:53;24.20;54.20
19847;DHT22;10084;50.518;8.588;2022-10-17T15:26:21;24.10;54.30
19847;DHT22;10084;50.518;8.588;2022-10-17T15:28:48;24.10;54.50
19847;DHT22;10084;50.518;8.588;2022-10-17T15:31:17;24.10;54.80
19847;DHT22;10084;50.518;8.588;2022-10-17T15:33:44;24.10;54.90
19847;DHT22;10084;50.518;8.588;2022-10-17T15:36:21;24.10;55.00
19847;DHT22;10084;50.518;8.588;2022-10-17T15:38:48;24.10;55.10
19847;DHT22;10084;50.518;8.588;2022-10-17T15:41:15;24.00;55.10
19847;DHT22;10084;50.518;8.588;2022-10-17T15:43:40;24.00;55.30
19847;DHT22;10084;50.518;8.588;2022-10-17T15:46:15;23.90;55.40
19847;DHT22;10084;50.518;8.588;2022-10-17T15:48:41;23.90;55.60
19847;DHT22;10084;50.518;8.588;2022-10-17T15:51:08;23.80;55.60
19847;DHT22;10084;50.518;8.588;2022-10-17T15:53:33;23.70;55.80
19847;DHT22;10084;50.518;8.588;2022-10-17T15:55:59;23.70;55.90
19847;DHT22;10084;50.518;8.588;2022-10-17T15:58:27;23.60;56.10
19847;DHT22;10084;50.518;8.588;2022-10-17T16:00:56;23.40;56.10
19847;DHT22;10084;50.518;8.588;2022-10-17T16:03:22;23.40;56.30
19847;DHT22;10084;50.518;8.588;2022-10-17T16:05:48;23.20;56.40
19847;DHT22;10084;50.518;8.588;2022-10-17T16:10:39;23.10;56.10
19847;DHT22;10084;50.518;8.588;2022-10-17T16:13:05;23.00;56.80
19847;DHT22;10084;50.518;8.588;2022-10-17T16:15:31;22.90;56.80
19847;DHT22;10084;50.518;8.588;2022-10-17T16:17:56;22.80;56.90
19847;DHT22;10084;50.518;8.588;2022-10-17T16:20:23;22.70;57.00
19847;DHT22;10084;50.518;8.588;2022-10-17T16:22:50;22.60;57.20
19847;DHT22;10084;50.518;8.588;2022-10-17T16:25:27;22.50;57.30
19847;DHT22;10084;50.518;8.588;2022-10-17T16:27:58;22.40;57.40
19847;DHT22;10084;50.518;8.588;2022-10-17T16:30:29;22.30;57.60
19847;DHT22;10084;50.518;8.588;2022-10-17T16:32:55;22.20;57.70
19847;DHT22;10084;50.518;8.588;2022-10-17T16:35:26;22.10;57.90
19847;DHT22;10084;50.518;8.588;2022-10-17T16:37:53;22.00;58.10
19847;DHT22;10084;50.518;8.588;2022-10-17T16:40:19;21.90;58.30
19847;DHT22;10084;50.518;8.588;2022-10-17T16:42:45;21.80;58.30
19847;DHT22;10084;50.518;8.588;2022-10-17T16:45:19;21.70;58.50
19847;DHT22;10084;50.518;8.588;2022-10-17T16:47:46;21.60;58.70
19847;DHT22;10084;50.518;8.588;2022-10-17T16:50:12;21.50;58.90
19847;DHT22;10084;50.518;8.588;2022-10-17T16:52:38;21.40;59.00
19847;DHT22;10084;50.518;8.588;2022-10-17T16:55:04;21.30;59.10
19847;DHT22;10084;50.518;8.588;2022-10-17T16:57:30;21.20;59.30
19847;DHT22;10084;50.518;8.588;2022-10-17T16:59:55;21.10;59.50
19847;DHT22;10084;50.518;8.588;2022-10-17T17:02:21;21.00;59.60
19847;DHT22;10084;50.518;8.588;2022-10-17T17:04:47;20.90;59.80
19847;DHT22;10084;50.518;8.588;2022-10-17T17:07:12;20.80;59.90
19847;DHT22;10084;50.518;8.588;2022-10-17T17:09:38;20.70;60.10
19847;DHT22;10084;50.518;8.588;2022-10-17T17:12:04;20.70;60.30
19847;DHT22;10084;50.518;8.588;2022-10-17T17:14:30;20.60;60.40
19847;DHT22;10084;50.518;8.588;2022-10-17T17:16:56;20.50;60.60
19847;DHT22;10084;50.518;8.588;2022-10-17T17:19:22;20.40;60.80
19847;DHT22;10084;50.518;8.588;2022-10-17T17:21:48;20.30;61.00
19847;DHT22;10084;50.518;8.588;2022-10-17T17:24:17;20.20;61.10
19847;DHT22;10084;50.518;8.588;2022-10-17T17:26:48;20.10;61.20
19847;DHT22;10084;50.518;8.588;2022-10-17T17:29:14;20.10;61.40